sensor_id;sensor_type;location;lat;lon;timestamp;temperature;humidity
947;DHT22;460;48.734;9.152;2022-12-05T00:01:17;2.80;99.90
947;DHT22;460;48.734;9.152;2022-12-05T00:03:44;2.80;99.90
947;DHT22;460;48.734;9.152;2022-12-05T00:06:11;2.80;99.90
947;DHT22;460;48.734;9.152;2022-12-05T00:08:39;2.90;99.90
947;DHT22;460;48.734;9.152;2022-12-05T00:11:10;2.80;99.90
947;DHT22;460;48.734;9.152;2022-12-05T00:13:38;2.80;99.90
947;DHT22;460;48.734;9.152;2022-12-05T00:16:06;2.80;99.90
947;DHT22;460;48.734;9.152;2022-12-05T00:18:34;2.80;99.90
947;DHT22;460;48.734;9.152;2022-12-05T00:21:00;2.80;99.90
947;DHT22;460;48.734;9.152;2022-12-05T00:23:27;2.80;99.90
947;DHT22;460;48.734;9.152;2022-12-05T00:25:55;2.60;99.90
947;DHT22;460;48.734;9.152;2022-12-05T00:28:22;2.70;99.90
947;DHT22;460;48.734;9.152;2022-12-05T00:30:49;2.60;99.90
947;DHT22;460;48.734;9.152;2022-12-05T00:33:16;2.50;99.90
947;DHT22;460;48.734;9.152;2022-12-05T00:35:43;2.50;99.90
947;DHT22;460;48.734;9.152;2022-12-05T00:38:09;2.50;99.90
947;DHT22;460;48.734;9.152;2022-12-05T00:40:36;2.50;99.90
947;DHT22;460;48.734;9.152;2022-12-05T00:43:04;2.40;99.90
947;DHT22;460;48.734;9.152;2022-12-05T00:45:32;2.50;99.90
947;DHT22;460;48.734;9.152;2022-12-05T00:47:59;2.60;99.90
947;DHT22;460;48.734;9.152;2022-12-05T00:50:26;2.60;99.90
947;DHT22;460;48.734;9.152;2022-12-05T00:52:52;2.60;99.90
947;DHT22;460;48.734;9.152;2022-12-05T00:55:19;2.60;99.90
947;DHT22;460;48.734;9.152;2022-12-05T00:57:46;2.50;99.90
947;DHT22;460;48.734;9.152;2022-12-05T01:00:16;2.60;99.90
947;DHT22;460;48.734;9.152;2022-12-05T01:02:43;2.70;99.90
947;DHT22;460;48.734;9.152;2022-12-05T01:05:10;2.80;99.90
947;DHT22;460;48.734;9.152;2022-12-05T01:07:37;2.80;99.90
947;DHT22;460;48.734;9.152;2022-12-05T01:10:05;2.80;99.90
947;DHT22;460;48.734;9.152;2022-12-05T01:12:32;2.80;99.90
947;DHT22;460;48.734;9.152;2022-12-05T01:14:59;2.90;99.90
947;DHT22;460;48.734;9.152;2022-12-05T01:17:27;2.80;99.90
947;DHT22;460;48.734;9.152;2022-12-05T01:19:54;2.80;99.90
947;DHT22;460;48.734;9.152;2022-12-05T01:22:20;2.80;99.90
947;DHT22;460;48.734;9.152;2022-12-05T01:24:47;2.90;99.90
947;DHT22;460;48.734;9.152;2022-12-05T01:27:14;2.90;99.90
947;DHT22;460;48.734;9.152;2022-12-05T01:29:41;2.90;99.90
947;DHT22;460;48.734;9.152;2022-12-05T01:32:10;2.90;99.90
947;DHT22;460;48.734;9.152;2022-12-05T01:34:38;2.90;99.90
947;DHT22;460;48.734;9.152;2022-12-05T01:37:05;2.90;99.90
947;DHT22;460;48.734;9.152;2022-12-05T01:39:32;2.80;99.90
947;DHT22;460;48.734;9.152;2022-12-05T01:41:59;2.80;99.90
947;DHT22;460;48.734;9.152;2022-12-05T01:45:05;2.80;99.90
947;DHT22;460;48.734;9.152;2022-12-05T01:47:34;2.90;99.90
947;DHT22;460;48.734;9.152;2022-12-05T01:50:04;2.90;99.90
947;DHT22;460;48.734;9.152;2022-12-05T01:52:32;2.90;99.90
947;DHT22;460;48.734;9.152;2022-12-05T01:55:03;2.90;99.90
947;DHT22;460;48.734;9.152;2022-12-05T01:57:32;2.80;99.90
947;DHT22;460;48.734;9.152;2022-12-05T02:00:03;2.80;99.90
947;DHT22;460;48.734;9.152;2022-12-05T02:02:30;2.80;99.90
947;DHT22;460;48.734;9.152;2022-12-05T02:05:02;2.80;99.90
947;DHT22;460;48.734;9.152;2022-12-05T02:07:31;2.80;99.90
947;DHT22;460;48.734;9.152;2022-12-05T02:10:00;2.90;99.90
947;DHT22;460;48.734;9.152;2022-12-05T02:12:28;2.90;99.90
947;DHT22;460;48.734;9.152;2022-12-05T02:15:05;2.80;99.90
947;DHT22;460;48.734;9.152;2022-12-05T02:17:42;2.80;99.90
947;DHT22;460;48.734;9.152;2022-12-05T02:20:25;2.80;99.90
947;DHT22;460;48.734;9.152;2022-12-05T02:23:28;2.80;99.90
947;DHT22;460;48.734;9.152;2022-12-05T02:26:43;2.80;99.90
947;DHT22;460;48.734;9.152;2022-12-05T02:29:50;2.80;99.90
947;DHT22;460;48.734;9.152;2022-12-05T02:32:31;2.80;99.90
947;DHT22;460;48.734;9.152;2022-12-05T02:35:09;2.90;99.90
947;DHT22;460;48.734;9.152;2022-12-05T02:37:42;3.00;99.90
947;DHT22;460;48.734;9.152;2022-12-05T02:40:17;3.00;99.90
947;DHT22;460;48.734;9.152;2022-12-05T02:42:52;2.90;99.90
947;DHT22;460;48.734;9.152;2022-12-05T02:45:24;2.90;99.90
947;DHT22;460;48.734;9.152;2022-12-05T02:47:54;2.90;99.90
947;DHT22;460;48.734;9.152;2022-12-05T02:50:27;2.80;99.90
947;DHT22;460;48.734;9.152;2022-12-05T02:52:58;2.90;99.90
947;DHT22;460;48.734;9.152;2022-12-05T02:55:30;2.90;99.90
947;DHT22;460;48.734;9.152;2022-12-05T02:58:02;2.90;99.90
947;DHT22;460;48.734;9.152;2022-12-05T03:00:33;2.90;99.90
947;DHT22;460;48.734;9.152;2022-12-05T03:03:11;3.00;99.90
947;DHT22;460;48.734;9.152;2022-12-05T03:05:42;3.00;99.90
947;DHT22;460;48.734;9.152;2022-12-05T03:08:15;2.90;99.90
947;DHT22;460;48.734;9.152;2022-12-05T03:10:46;2.90;99.90
947;DHT22;460;48.734;9.152;2022-12-05T03:13:20;2.90;99.90
947;DHT22;460;48.734;9.152;2022-12-05T03:15:53;2.90;99.90
947;DHT22;460;48.734;9.152;2022-12-05T03:18:24;2.90;99.90
947;DHT22;460;48.734;9.152;2022-12-05T03:20:58;5.00;99.90
947;DHT22;460;48.734;9.152;2022-12-05T03:23:29;3.00;99.90
947;DHT22;460;48.734;9.152;2022-12-05T03:26:05;3.00;99.90
947;DHT22;460;48.734;9.152;2022-12-05T03:28:47;3.00;99.90
947;DHT22;460;48.734;9.152;2022-12-05T03:31:25;3.00;99.90
947;DHT22;460;48.734;9.152;2022-12-05T03:33:57;3.10;99.90
947;DHT22;460;48.734;9.152;2022-12-05T03:36:33;3.10;99.90
947;DHT22;460;48.734;9.152;2022-12-05T03:39:07;3.10;99.90
947;DHT22;460;48.734;9.152;2022-12-05T03:41:40;3.10;99.90
947;DHT22;460;48.734;9.152;2022-12-05T03:44:12;3.00;99.90
947;DHT22;460;48.734;9.152;2022-12-05T03:46:46;3.00;99.90
947;DHT22;460;48.734;9.152;2022-12-05T03:49:19;3.00;99.90
947;DHT22;460;48.734;9.152;2022-12-05T03:51:54;3.10;99.90
947;DHT22;460;48.734;9.152;2022-12-05T03:54:25;3.20;99.90
947;DHT22;460;48.734;9.152;2022-12-05T03:56:57;3.10;99.90
947;DHT22;460;48.734;9.152;2022-12-05T03:59:29;3.10;99.90
947;DHT22;460;48.734;9.152;2022-12-05T04:02:05;3.10;99.90
947;DHT22;460;48.734;9.152;2022-12-05T04:04:36;3.10;99.90
947;DHT22;460;48.734;9.152;2022-12-05T04:07:06;3.10;99.90
947;DHT22;460;48.734;9.152;2022-12-05T04:09:38;3.20;99.90
947;DHT22;460;48.734;9.152;2022-12-05T04:12:08;3.10;99.90
947;DHT22;460;48.734;9.152;2022-12-05T04:14:40;3.10;99.90
947;DHT22;460;48.734;9.152;2022-12-05T04:17:13;3.10;99.90
947;DHT22;460;48.734;9.152;2022-12-05T04:19:42;3.20;99.90
947;DHT22;460;48.734;9.152;2022-12-05T04:22:28;3.20;99.90
947;DHT22;460;48.734;9.152;2022-12-05T04:24:57;3.10;99.90
947;DHT22;460;48.734;9.152;2022-12-05T04:27:50;3.00;99.90
947;DHT22;460;48.734;9.152;2022-12-05T04:30:21;2.90;99.90
947;DHT22;460;48.734;9.152;2022-12-05T04:32:56;3.00;99.90
947;DHT22;460;48.734;9.152;2022-12-05T04:35:28;3.00;99.90
947;DHT22;460;48.734;9.152;2022-12-05T04:38:01;2.90;99.90
947;DHT22;460;48.734;9.152;2022-12-05T04:40:32;2.90;99.90
947;DHT22;460;48.734;9.152;2022-12-05T04:43:02;2.90;99.90
947;DHT22;460;48.734;9.152;2022-12-05T04:45:30;2.90;99.90
947;DHT22;460;48.734;9.152;2022-12-05T04:48:03;2.90;99.90
947;DHT22;460;48.734;9.152;2022-12-05T04:50:32;2.90;99.90
947;DHT22;460;48.734;9.152;2022-12-05T04:53:01;2.80;99.90
947;DHT22;460;48.734;9.152;2022-12-05T04:55:31;2.80;99.90
947;DHT22;460;48.734;9.152;2022-12-05T04:58:05;2.80;99.90
947;DHT22;460;48.734;9.152;2022-12-05T05:00:37;2.70;99.90
947;DHT22;460;48.734;9.152;2022-12-05T05:03:11;2.70;99.90
947;DHT22;460;48.734;9.152;2022-12-05T05:05:39;2.70;99.90
947;DHT22;460;48.734;9.152;2022-12-05T05:08:15;2.70;99.90
947;DHT22;460;48.734;9.152;2022-12-05T05:10:49;2.60;99.90
947;DHT22;460;48.734;9.152;2022-12-05T05:13:17;2.70;99.90
947;DHT22;460;48.734;9.152;2022-12-05T05:15:44;2.70;99.90
947;DHT22;460;48.734;9.152;2022-12-05T05:18:12;2.80;99.90
947;DHT22;460;48.734;9.152;2022-12-05T05:20:39;2.80;99.90
947;DHT22;460;48.734;9.152;2022-12-05T05:23:06;2.90;99.90
947;DHT22;460;48.734;9.152;2022-12-05T05:25:32;2.90;99.90
947;DHT22;460;48.734;9.152;2022-12-05T05:27:59;3.00;99.90
947;DHT22;460;48.734;9.152;2022-12-05T05:30:26;3.10;99.90
947;DHT22;460;48.734;9.152;2022-12-05T05:32:53;3.30;99.90
947;DHT22;460;48.734;9.152;2022-12-05T05:35:21;3.20;99.90
947;DHT22;460;48.734;9.152;2022-12-05T05:37:48;3.20;99.90
947;DHT22;460;48.734;9.152;2022-12-05T05:40:14;3.20;99.90
947;DHT22;460;48.734;9.152;2022-12-05T05:42:42;3.20;99.90
947;DHT22;460;48.734;9.152;2022-12-05T05:45:10;3.20;99.90
947;DHT22;460;48.734;9.152;2022-12-05T05:47:38;3.20;99.90
947;DHT22;460;48.734;9.152;2022-12-05T05:50:06;3.20;99.90
947;DHT22;460;48.734;9.152;2022-12-05T05:52:35;3.20;99.90
947;DHT22;460;48.734;9.152;2022-12-05T05:55:03;3.20;99.90
947;DHT22;460;48.734;9.152;2022-12-05T05:57:31;3.20;99.90
947;DHT22;460;48.734;9.152;2022-12-05T05:59:57;3.20;99.90
947;DHT22;460;48.734;9.152;2022-12-05T06:02:24;3.10;99.90
947;DHT22;460;48.734;9.152;2022-12-05T06:04:51;3.00;99.90
947;DHT22;460;48.734;9.152;2022-12-05T06:07:18;3.00;99.90
947;DHT22;460;48.734;9.152;2022-12-05T06:09:46;2.90;99.90
947;DHT22;460;48.734;9.152;2022-12-05T06:12:13;3.00;99.90
947;DHT22;460;48.734;9.152;2022-12-05T06:14:39;3.00;99.90
947;DHT22;460;48.734;9.152;2022-12-05T06:17:06;2.90;99.90
947;DHT22;460;48.734;9.152;2022-12-05T06:19:33;3.00;99.90
947;DHT22;460;48.734;9.152;2022-12-05T06:22:00;3.00;99.90
947;DHT22;460;48.734;9.152;2022-12-05T06:24:27;2.90;99.90
947;DHT22;460;48.734;9.152;2022-12-05T06:26:55;2.80;99.90
947;DHT22;460;48.734;9.152;2022-12-05T06:29:21;2.90;99.90
947;DHT22;460;48.734;9.152;2022-12-05T06:31:48;2.90;99.90
947;DHT22;460;48.734;9.152;2022-12-05T06:34:15;2.90;99.90
947;DHT22;460;48.734;9.152;2022-12-05T06:36:42;2.90;99.90
947;DHT22;460;48.734;9.152;2022-12-05T06:39:09;3.00;99.90
947;DHT22;460;48.734;9.152;2022-12-05T06:41:36;3.00;99.90
947;DHT22;460;48.734;9.152;2022-12-05T06:44:04;3.00;99.90
947;DHT22;460;48.734;9.152;2022-12-05T06:46:31;3.30;99.90
947;DHT22;460;48.734;9.152;2022-12-05T06:48:58;3.10;99.90
947;DHT22;460;48.734;9.152;2022-12-05T06:51:25;3.10;99.90
947;DHT22;460;48.734;9.152;2022-12-05T06:53:52;3.00;99.90
947;DHT22;460;48.734;9.152;2022-12-05T06:56:19;3.00;99.90
947;DHT22;460;48.734;9.152;2022-12-05T06:58:47;3.10;99.90
947;DHT22;460;48.734;9.152;2022-12-05T07:01:18;3.10;99.90
947;DHT22;460;48.734;9.152;2022-12-05T07:04:04;3.10;99.90
947;DHT22;460;48.734;9.152;2022-12-05T07:06:32;3.10;99.90
947;DHT22;460;48.734;9.152;2022-12-05T07:08:59;3.10;99.90
947;DHT22;460;48.734;9.152;2022-12-05T07:11:26;2.70;99.90
947;DHT22;460;48.734;9.152;2022-12-05T07:13:53;3.00;99.90
947;DHT22;460;48.734;9.152;2022-12-05T07:16:23;3.10;99.90
947;DHT22;460;48.734;9.152;2022-12-05T07:18:55;3.20;99.90
947;DHT22;460;48.734;9.152;2022-12-05T07:21:37;3.20;99.90
947;DHT22;460;48.734;9.152;2022-12-05T07:24:05;3.30;99.90
947;DHT22;460;48.734;9.152;2022-12-05T07:26:32;3.30;99.90
947;DHT22;460;48.734;9.152;2022-12-05T07:28:59;3.30;99.90
947;DHT22;460;48.734;9.152;2022-12-05T07:31:27;3.40;99.90
947;DHT22;460;48.734;9.152;2022-12-05T07:36:23;3.50;99.90
947;DHT22;460;48.734;9.152;2022-12-05T07:38:54;3.50;99.90
947;DHT22;460;48.734;9.152;2022-12-05T07:41:22;3.60;99.90
947;DHT22;460;48.734;9.152;2022-12-05T07:43:50;3.60;99.90
947;DHT22;460;48.734;9.152;2022-12-05T07:46:17;3.70;99.90
947;DHT22;460;48.734;9.152;2022-12-05T07:48:46;3.60;99.90
947;DHT22;460;48.734;9.152;2022-12-05T07:51:14;3.70;99.90
947;DHT22;460;48.734;9.152;2022-12-05T07:53:41;3.70;99.90
947;DHT22;460;48.734;9.152;2022-12-05T07:56:10;3.80;99.90
947;DHT22;460;48.734;9.152;2022-12-05T07:58:38;3.90;99.90
947;DHT22;460;48.734;9.152;2022-12-05T08:01:07;3.90;99.90
947;DHT22;460;48.734;9.152;2022-12-05T08:03:34;4.10;99.90
947;DHT22;460;48.734;9.152;2022-12-05T08:06:04;3.90;99.90
947;DHT22;460;48.734;9.152;2022-12-05T08:08:31;4.00;99.90
947;DHT22;460;48.734;9.152;2022-12-05T08:11:02;3.90;99.90
947;DHT22;460;48.734;9.152;2022-12-05T08:13:29;4.00;99.90
947;DHT22;460;48.734;9.152;2022-12-05T08:15:59;4.10;99.90
947;DHT22;460;48.734;9.152;2022-12-05T08:18:27;4.00;99.90
947;DHT22;460;48.734;9.152;2022-12-05T08:20:53;4.00;99.90
947;DHT22;460;48.734;9.152;2022-12-05T08:23:21;4.00;99.90
947;DHT22;460;48.734;9.152;2022-12-05T08:25:48;4.10;99.90
947;DHT22;460;48.734;9.152;2022-12-05T08:28:16;4.10;99.90
947;DHT22;460;48.734;9.152;2022-12-05T08:30:43;4.10;99.90
947;DHT22;460;48.734;9.152;2022-12-05T08:33:10;4.10;99.90
947;DHT22;460;48.734;9.152;2022-12-05T08:35:37;4.10;99.90
947;DHT22;460;48.734;9.152;2022-12-05T08:38:03;4.10;99.90
947;DHT22;460;48.734;9.152;2022-12-05T08:40:32;4.10;99.90
947;DHT22;460;48.734;9.152;2022-12-05T08:42:58;4.10;99.90
947;DHT22;460;48.734;9.152;2022-12-05T08:45:25;4.10;99.90
947;DHT22;460;48.734;9.152;2022-12-05T08:47:52;4.20;99.90
947;DHT22;460;48.734;9.152;2022-12-05T08:50:19;4.10;99.90
947;DHT22;460;48.734;9.152;2022-12-05T08:52:45;4.10;99.90
947;DHT22;460;48.734;9.152;2022-12-05T08:55:12;4.10;99.90
947;DHT22;460;48.734;9.152;2022-12-05T08:57:40;4.20;99.90
947;DHT22;460;48.734;9.152;2022-12-05T09:00:08;4.20;99.90
947;DHT22;460;48.734;9.152;2022-12-05T09:02:35;4.20;99.90
947;DHT22;460;48.734;9.152;2022-12-05T09:05:02;4.20;99.90
947;DHT22;460;48.734;9.152;2022-12-05T09:07:29;4.30;99.90
947;DHT22;460;48.734;9.152;2022-12-05T09:09:55;4.30;99.90
947;DHT22;460;48.734;9.152;2022-12-05T09:12:22;4.30;99.90
947;DHT22;460;48.734;9.152;2022-12-05T09:14:51;4.40;99.90
947;DHT22;460;48.734;9.152;2022-12-05T09:17:17;4.40;99.90
947;DHT22;460;48.734;9.152;2022-12-05T09:19:44;4.50;99.90
947;DHT22;460;48.734;9.152;2022-12-05T09:22:11;4.60;99.90
947;DHT22;460;48.734;9.152;2022-12-05T09:24:38;4.70;99.90
947;DHT22;460;48.734;9.152;2022-12-05T09:27:05;4.50;99.90
947;DHT22;460;48.734;9.152;2022-12-05T09:29:31;4.50;99.90
947;DHT22;460;48.734;9.152;2022-12-05T09:31:59;4.60;99.90
947;DHT22;460;48.734;9.152;2022-12-05T09:34:27;6.50;99.90
947;DHT22;460;48.734;9.152;2022-12-05T09:36:54;4.70;99.90
947;DHT22;460;48.734;9.152;2022-12-05T09:39:22;4.30;99.90
947;DHT22;460;48.734;9.152;2022-12-05T09:42:08;4.70;99.90
947;DHT22;460;48.734;9.152;2022-12-05T09:44:48;4.70;99.90
947;DHT22;460;48.734;9.152;2022-12-05T09:47:31;4.70;99.90
947;DHT22;460;48.734;9.152;2022-12-05T09:50:10;4.70;99.90
947;DHT22;460;48.734;9.152;2022-12-05T09:52:42;4.90;99.90
947;DHT22;460;48.734;9.152;2022-12-05T09:55:12;4.90;99.90
947;DHT22;460;48.734;9.152;2022-12-05T09:57:43;4.90;99.90
947;DHT22;460;48.734;9.152;2022-12-05T10:00:11;5.10;99.90
947;DHT22;460;48.734;9.152;2022-12-05T10:02:46;4.90;99.90
947;DHT22;460;48.734;9.152;2022-12-05T10:05:19;5.00;99.90
947;DHT22;460;48.734;9.152;2022-12-05T10:07:56;5.00;99.90
947;DHT22;460;48.734;9.152;2022-12-05T10:10:33;5.00;99.90
947;DHT22;460;48.734;9.152;2022-12-05T10:13:26;5.10;99.90
947;DHT22;460;48.734;9.152;2022-12-05T10:15:59;5.20;99.90
947;DHT22;460;48.734;9.152;2022-12-05T10:18:34;5.20;99.90
947;DHT22;460;48.734;9.152;2022-12-05T10:21:11;5.20;99.90
947;DHT22;460;48.734;9.152;2022-12-05T10:23:50;5.20;99.90
947;DHT22;460;48.734;9.152;2022-12-05T10:26:19;5.20;99.90
947;DHT22;460;48.734;9.152;2022-12-05T10:28:50;5.20;99.90
947;DHT22;460;48.734;9.152;2022-12-05T10:31:21;5.30;99.90
947;DHT22;460;48.734;9.152;2022-12-05T10:33:56;5.30;99.90
947;DHT22;460;48.734;9.152;2022-12-05T10:36:24;5.30;99.90
947;DHT22;460;48.734;9.152;2022-12-05T10:38:51;5.40;99.90
947;DHT22;460;48.734;9.152;2022-12-05T10:41:18;5.60;99.90
947;DHT22;460;48.734;9.152;2022-12-05T10:43:45;6.50;99.90
947;DHT22;460;48.734;9.152;2022-12-05T10:46:15;5.10;99.90
947;DHT22;460;48.734;9.152;2022-12-05T10:48:42;5.80;99.90
947;DHT22;460;48.734;9.152;2022-12-05T10:51:13;5.80;99.90
947;DHT22;460;48.734;9.152;2022-12-05T10:53:43;5.80;99.90
947;DHT22;460;48.734;9.152;2022-12-05T10:56:36;5.90;99.90
947;DHT22;460;48.734;9.152;2022-12-05T10:59:03;6.00;99.90
947;DHT22;460;48.734;9.152;2022-12-05T11:01:30;6.00;99.90
947;DHT22;460;48.734;9.152;2022-12-05T11:03:59;6.10;99.90
947;DHT22;460;48.734;9.152;2022-12-05T11:06:29;6.10;99.90
947;DHT22;460;48.734;9.152;2022-12-05T11:09:02;6.10;99.90
947;DHT22;460;48.734;9.152;2022-12-05T11:11:30;6.20;99.90
947;DHT22;460;48.734;9.152;2022-12-05T11:13:59;6.30;99.90
947;DHT22;460;48.734;9.152;2022-12-05T11:16:30;6.30;99.90
947;DHT22;460;48.734;9.152;2022-12-05T11:19:17;6.20;99.90
947;DHT22;460;48.734;9.152;2022-12-05T11:21:46;6.00;99.90
947;DHT22;460;48.734;9.152;2022-12-05T11:24:20;6.10;99.90
947;DHT22;460;48.734;9.152;2022-12-05T11:26:48;6.00;99.90
947;DHT22;460;48.734;9.152;2022-12-05T11:29:28;6.00;99.90
947;DHT22;460;48.734;9.152;2022-12-05T11:31:55;6.10;99.90
947;DHT22;460;48.734;9.152;2022-12-05T11:34:24;6.20;99.90
947;DHT22;460;48.734;9.152;2022-12-05T11:36:57;6.30;99.90
947;DHT22;460;48.734;9.152;2022-12-05T11:39:25;6.40;99.90
947;DHT22;460;48.734;9.152;2022-12-05T11:42:05;6.60;99.90
947;DHT22;460;48.734;9.152;2022-12-05T11:45:00;6.60;99.90
947;DHT22;460;48.734;9.152;2022-12-05T11:47:44;6.70;99.90
947;DHT22;460;48.734;9.152;2022-12-05T11:50:27;6.80;99.90
947;DHT22;460;48.734;9.152;2022-12-05T11:53:11;6.90;99.90
947;DHT22;460;48.734;9.152;2022-12-05T11:55:45;7.00;99.90
947;DHT22;460;48.734;9.152;2022-12-05T12:01:16;6.90;99.40
947;DHT22;460;48.734;9.152;2022-12-05T12:03:59;6.80;99.60
947;DHT22;460;48.734;9.152;2022-12-05T12:06:32;6.70;99.70
947;DHT22;460;48.734;9.152;2022-12-05T12:09:15;6.70;99.80
947;DHT22;460;48.734;9.152;2022-12-05T12:11:53;6.80;99.90
947;DHT22;460;48.734;9.152;2022-12-05T12:14:27;6.80;99.90
947;DHT22;460;48.734;9.152;2022-12-05T12:17:03;6.70;99.80
947;DHT22;460;48.734;9.152;2022-12-05T12:19:46;6.70;99.00
947;DHT22;460;48.734;9.152;2022-12-05T12:22:28;6.60;99.00
947;DHT22;460;48.734;9.152;2022-12-05T12:25:19;6.60;98.90
947;DHT22;460;48.734;9.152;2022-12-05T12:27:57;6.60;98.90
947;DHT22;460;48.734;9.152;2022-12-05T12:30:39;6.60;99.10
947;DHT22;460;48.734;9.152;2022-12-05T12:33:12;6.60;99.20
947;DHT22;460;48.734;9.152;2022-12-05T12:35:45;6.60;99.40
947;DHT22;460;48.734;9.152;2022-12-05T12:38:32;6.70;99.10
947;DHT22;460;48.734;9.152;2022-12-05T12:41:09;6.70;99.20
947;DHT22;460;48.734;9.152;2022-12-05T12:43:45;6.60;99.20
947;DHT22;460;48.734;9.152;2022-12-05T12:46:24;6.60;99.40
947;DHT22;460;48.734;9.152;2022-12-05T12:49:02;6.70;99.90
947;DHT22;460;48.734;9.152;2022-12-05T12:51:31;6.70;99.70
947;DHT22;460;48.734;9.152;2022-12-05T12:54:25;6.70;99.50
947;DHT22;460;48.734;9.152;2022-12-05T12:57:05;6.70;99.00
947;DHT22;460;48.734;9.152;2022-12-05T12:59:46;7.00;99.90
947;DHT22;460;48.734;9.152;2022-12-05T13:02:19;6.80;99.10
947;DHT22;460;48.734;9.152;2022-12-05T13:04:52;6.80;99.50
947;DHT22;460;48.734;9.152;2022-12-05T13:07:23;6.80;99.20
947;DHT22;460;48.734;9.152;2022-12-05T13:09:55;6.80;99.60
947;DHT22;460;48.734;9.152;2022-12-05T13:12:28;6.60;99.10
947;DHT22;460;48.734;9.152;2022-12-05T13:14:59;6.60;99.00
947;DHT22;460;48.734;9.152;2022-12-05T13:17:28;6.50;99.50
947;DHT22;460;48.734;9.152;2022-12-05T13:19:57;6.70;99.60
947;DHT22;460;48.734;9.152;2022-12-05T13:22:26;6.70;99.60
947;DHT22;460;48.734;9.152;2022-12-05T13:24:54;6.70;99.90
947;DHT22;460;48.734;9.152;2022-12-05T13:27:22;6.70;99.90
947;DHT22;460;48.734;9.152;2022-12-05T13:29:53;6.80;99.90
947;DHT22;460;48.734;9.152;2022-12-05T13:32:27;6.90;99.90
947;DHT22;460;48.734;9.152;2022-12-05T13:34:55;7.00;99.40
947;DHT22;460;48.734;9.152;2022-12-05T13:37:24;6.90;99.00
947;DHT22;460;48.734;9.152;2022-12-05T13:40:28;6.90;99.00
947;DHT22;460;48.734;9.152;2022-12-05T13:43:16;6.90;99.40
947;DHT22;460;48.734;9.152;2022-12-05T13:45:59;7.00;99.20
947;DHT22;460;48.734;9.152;2022-12-05T13:48:29;6.80;98.30
947;DHT22;460;48.734;9.152;2022-12-05T13:51:02;6.70;98.30
947;DHT22;460;48.734;9.152;2022-12-05T13:53:35;6.80;99.90
947;DHT22;460;48.734;9.152;2022-12-05T13:56:04;6.60;98.90
947;DHT22;460;48.734;9.152;2022-12-05T13:58:49;6.70;99.00
947;DHT22;460;48.734;9.152;2022-12-05T14:01:44;6.70;98.70
947;DHT22;460;48.734;9.152;2022-12-05T14:07:37;6.80;98.10
947;DHT22;460;48.734;9.152;2022-12-05T14:10:06;6.90;99.00
947;DHT22;460;48.734;9.152;2022-12-05T14:12:51;6.40;99.90
947;DHT22;460;48.734;9.152;2022-12-05T14:15:39;6.80;98.30
947;DHT22;460;48.734;9.152;2022-12-05T14:18:15;6.80;98.30
947;DHT22;460;48.734;9.152;2022-12-05T14:20:49;6.80;99.90
947;DHT22;460;48.734;9.152;2022-12-05T14:23:44;6.60;98.40
947;DHT22;460;48.734;9.152;2022-12-05T14:26:33;6.70;98.40
947;DHT22;460;48.734;9.152;2022-12-05T14:29:18;6.70;98.10
947;DHT22;460;48.734;9.152;2022-12-05T14:32:00;6.70;98.10
947;DHT22;460;48.734;9.152;2022-12-05T14:34:32;6.60;98.00
947;DHT22;460;48.734;9.152;2022-12-05T14:37:02;6.40;99.00
947;DHT22;460;48.734;9.152;2022-12-05T14:39:36;6.60;99.20
947;DHT22;460;48.734;9.152;2022-12-05T14:42:15;6.50;98.50
947;DHT22;460;48.734;9.152;2022-12-05T14:44:46;6.50;98.60
947;DHT22;460;48.734;9.152;2022-12-05T14:47:17;6.40;98.30
947;DHT22;460;48.734;9.152;2022-12-05T14:49:55;6.40;98.20
947;DHT22;460;48.734;9.152;2022-12-05T14:52:28;6.30;98.60
947;DHT22;460;48.734;9.152;2022-12-05T14:55:00;6.30;99.00
947;DHT22;460;48.734;9.152;2022-12-05T14:57:29;6.30;99.60
947;DHT22;460;48.734;9.152;2022-12-05T14:59:59;6.20;98.80
947;DHT22;460;48.734;9.152;2022-12-05T15:02:29;6.20;98.90
947;DHT22;460;48.734;9.152;2022-12-05T15:05:03;6.20;98.60
947;DHT22;460;48.734;9.152;2022-12-05T15:07:33;6.10;98.40
947;DHT22;460;48.734;9.152;2022-12-05T15:10:02;6.00;98.40
947;DHT22;460;48.734;9.152;2022-12-05T15:12:35;5.90;98.40
947;DHT22;460;48.734;9.152;2022-12-05T15:15:12;5.80;98.20
947;DHT22;460;48.734;9.152;2022-12-05T15:17:45;5.70;99.00
947;DHT22;460;48.734;9.152;2022-12-05T15:20:20;5.70;98.70
947;DHT22;460;48.734;9.152;2022-12-05T15:22:50;5.50;98.90
947;DHT22;460;48.734;9.152;2022-12-05T15:25:26;5.40;98.90
947;DHT22;460;48.734;9.152;2022-12-05T15:28:00;5.30;99.00
947;DHT22;460;48.734;9.152;2022-12-05T15:30:29;5.30;99.20
947;DHT22;460;48.734;9.152;2022-12-05T15:32:56;5.30;99.10
947;DHT22;460;48.734;9.152;2022-12-05T15:35:27;5.30;99.40
947;DHT22;460;48.734;9.152;2022-12-05T15:37:59;5.20;99.40
947;DHT22;460;48.734;9.152;2022-12-05T15:40:31;5.20;99.50
947;DHT22;460;48.734;9.152;2022-12-05T15:43:17;5.10;99.60
947;DHT22;460;48.734;9.152;2022-12-05T15:45:44;5.00;99.50
947;DHT22;460;48.734;9.152;2022-12-05T15:48:12;5.00;99.90
947;DHT22;460;48.734;9.152;2022-12-05T15:50:42;4.90;99.90
947;DHT22;460;48.734;9.152;2022-12-05T15:53:15;4.90;99.90
947;DHT22;460;48.734;9.152;2022-12-05T15:55:45;4.90;99.90
947;DHT22;460;48.734;9.152;2022-12-05T15:58:21;4.90;99.90
947;DHT22;460;48.734;9.152;2022-12-05T16:00:51;4.80;99.90
947;DHT22;460;48.734;9.152;2022-12-05T16:03:22;4.80;99.90
947;DHT22;460;48.734;9.152;2022-12-05T16:05:54;4.80;99.90
947;DHT22;460;48.734;9.152;2022-12-05T16:08:22;4.80;99.90
947;DHT22;460;48.734;9.152;2022-12-05T16:10:49;4.90;99.90
947;DHT22;460;48.734;9.152;2022-12-05T16:13:19;4.90;99.90
947;DHT22;460;48.734;9.152;2022-12-05T16:15:49;4.90;99.90
947;DHT22;460;48.734;9.152;2022-12-05T16:18:24;4.90;99.90
947;DHT22;460;48.734;9.152;2022-12-05T16:20:53;4.90;99.90
947;DHT22;460;48.734;9.152;2022-12-05T16:23:24;5.00;99.90
947;DHT22;460;48.734;9.152;2022-12-05T16:25:51;5.00;99.90
947;DHT22;460;48.734;9.152;2022-12-05T16:28:19;4.90;99.90
947;DHT22;460;48.734;9.152;2022-12-05T16:30:57;5.00;99.90
947;DHT22;460;48.734;9.152;2022-12-05T16:33:26;4.90;99.90
947;DHT22;460;48.734;9.152;2022-12-05T16:36:15;4.90;99.90
947;DHT22;460;48.734;9.152;2022-12-05T16:38:44;4.90;99.90
947;DHT22;460;48.734;9.152;2022-12-05T16:41:14;4.70;99.90
947;DHT22;460;48.734;9.152;2022-12-05T16:43:43;4.90;99.90
947;DHT22;460;48.734;9.152;2022-12-05T16:46:43;4.90;99.90
947;DHT22;460;48.734;9.152;2022-12-05T16:49:19;4.90;99.90
947;DHT22;460;48.734;9.152;2022-12-05T16:51:58;4.90;99.90
947;DHT22;460;48.734;9.152;2022-12-05T16:54:24;4.80;99.90
947;DHT22;460;48.734;9.152;2022-12-05T16:56:51;4.90;99.90
947;DHT22;460;48.734;9.152;2022-12-05T16:59:22;4.80;99.90
947;DHT22;460;48.734;9.152;2022-12-05T17:01:49;4.70;99.90
947;DHT22;460;48.734;9.152;2022-12-05T17:04:16;4.80;99.90
947;DHT22;460;48.734;9.152;2022-12-05T17:06:44;4.80;99.90
947;DHT22;460;48.734;9.152;2022-12-05T17:09:12;4.80;99.90
947;DHT22;460;48.734;9.152;2022-12-05T17:11:41;4.80;99.90
947;DHT22;460;48.734;9.152;2022-12-05T17:14:12;4.80;99.90
947;DHT22;460;48.734;9.152;2022-12-05T17:16:39;4.70;99.90
947;DHT22;460;48.734;9.152;2022-12-05T17:19:06;4.70;99.90
947;DHT22;460;48.734;9.152;2022-12-05T17:21:33;4.70;99.90
947;DHT22;460;48.734;9.152;2022-12-05T17:24:00;4.80;99.90
947;DHT22;460;48.734;9.152;2022-12-05T17:26:29;4.70;99.90
947;DHT22;460;48.734;9.152;2022-12-05T17:28:56;4.80;99.90
947;DHT22;460;48.734;9.152;2022-12-05T17:31:24;4.80;99.90